createdAt,value
2023-02-21T00:02:19.926Z,101781.06
2023-02-21T00:05:06.355Z,101781.50
2023-02-21T00:07:52.918Z,101782.47
2023-02-21T00:10:40.070Z,101778.06
2023-02-21T00:13:27.080Z,101779.56
2023-02-21T00:16:14.266Z,101772.84
2023-02-21T00:19:01.263Z,101767.66
2023-02-21T00:21:48.259Z,101764.19
2023-02-21T00:24:36.945Z,101768.47
2023-02-21T00:27:24.251Z,101762.81
2023-02-21T00:30:11.534Z,101766.88
2023-02-21T00:32:58.242Z,101755.31
2023-02-21T00:35:44.850Z,101754.28
2023-02-21T00:38:30.817Z,101747.53
2023-02-21T00:41:18.090Z,101759.59
2023-02-21T00:44:04.990Z,101758.97
2023-02-21T00:46:51.428Z,101750.38
2023-02-21T00:49:38.399Z,101744.34
2023-02-21T00:52:25.287Z,101746.63
2023-02-21T00:55:12.652Z,101748.88
2023-02-21T00:58:00.168Z,101745.63
2023-02-21T01:00:46.467Z,101740.34
2023-02-21T01:03:33.476Z,101745.75
2023-02-21T01:06:19.520Z,101747.56
2023-02-21T01:09:06.951Z,101744.19
2023-02-21T01:11:53.487Z,101737.38
2023-02-21T01:14:40.776Z,101741.00
2023-02-21T01:17:26.773Z,101741.00
2023-02-21T01:20:13.732Z,101744.56
2023-02-21T01:23:00.386Z,101735.91
2023-02-21T01:25:47.690Z,101744.09
2023-02-21T01:28:34.684Z,101736.63
2023-02-21T01:31:22.791Z,101736.25
2023-02-21T01:34:09.056Z,101729.59
2023-02-21T01:36:55.328Z,101733.66
2023-02-21T01:39:41.479Z,101730.53
2023-02-21T01:42:29.620Z,101725.47
2023-02-21T01:45:54.218Z,101726.53
2023-02-21T01:48:43.395Z,101718.38
2023-02-21T01:51:32.947Z,101724.56
2023-02-21T01:54:19.908Z,101719.91
2023-02-21T01:57:07.040Z,101719.13
2023-02-21T02:00:21.352Z,101716.69
2023-02-21T02:03:21.615Z,101708.31
2023-02-21T02:06:18.106Z,101709.53
2023-02-21T02:09:05.101Z,101701.13
2023-02-21T02:12:25.739Z,101702.09
2023-02-21T02:15:00.367Z,101696.72
2023-02-21T02:17:49.539Z,101701.78
2023-02-21T02:20:26.976Z,101697.44
2023-02-21T02:22:57.561Z,101696.22
2023-02-21T02:25:28.380Z,101696.03
2023-02-21T02:28:03.389Z,101697.97
2023-02-21T02:30:50.434Z,101696.38
2023-02-21T02:33:39.235Z,101693.13
2023-02-21T02:36:22.373Z,101686.03
2023-02-21T02:38:57.718Z,101684.94
2023-02-21T02:41:53.435Z,101688.44
2023-02-21T02:44:37.842Z,101688.50
2023-02-21T02:47:14.260Z,101679.81
2023-02-21T02:49:44.981Z,101680.13
2023-02-21T02:52:12.641Z,101672.13
2023-02-21T02:54:40.191Z,101673.03
2023-02-21T02:57:13.133Z,101674.22
2023-02-21T02:59:46.068Z,101672.56
2023-02-21T03:02:52.818Z,101673.63
2023-02-21T03:05:25.719Z,101671.81
2023-02-21T03:08:15.476Z,101666.84
2023-02-21T03:11:10.316Z,101668.66
2023-02-21T03:13:47.683Z,101662.34
2023-02-21T03:16:31.040Z,101664.19
2023-02-21T03:19:07.618Z,101661.47
2023-02-21T03:21:41.523Z,101659.72
2023-02-21T03:24:14.385Z,101657.28
2023-02-21T03:26:45.362Z,101654.75
2023-02-21T03:29:34.257Z,101656.72
2023-02-21T03:32:13.795Z,101651.59
2023-02-21T03:34:43.234Z,101652.50
2023-02-21T03:37:31.520Z,101651.94
2023-02-21T03:39:59.511Z,101647.75
2023-02-21T03:42:27.397Z,101645.81
2023-02-21T03:44:55.677Z,101650.31
2023-02-21T03:47:24.247Z,101645.72
2023-02-21T03:49:52.861Z,101641.41
2023-02-21T03:52:21.297Z,101650.88
2023-02-21T03:54:49.434Z,101648.13
2023-02-21T03:57:20.532Z,101643.06
2023-02-21T03:59:49.536Z,101644.06
2023-02-21T04:02:19.280Z,101633.00
2023-02-21T04:04:48.788Z,101643.44
2023-02-21T04:07:20.916Z,101629.50
2023-02-21T04:09:49.914Z,101637.09
2023-02-21T04:12:25.567Z,101635.47
2023-02-21T04:14:53.190Z,101641.41
2023-02-21T04:17:21.162Z,101645.88
2023-02-21T04:19:49.503Z,101642.47
2023-02-21T04:22:17.988Z,101637.66
2023-02-21T04:24:48.413Z,101636.81
2023-02-21T04:27:17.113Z,101646.25
2023-02-21T04:29:50.627Z,101642.69
2023-02-21T04:32:18.403Z,101647.28
2023-02-21T04:34:46.136Z,101651.53
2023-02-21T04:37:15.409Z,101645.47
2023-02-21T04:39:44.195Z,101644.63
2023-02-21T04:42:12.163Z,101638.44
2023-02-21T04:44:40.340Z,101641.03
2023-02-21T04:47:11.529Z,101636.50
2023-02-21T04:49:39.129Z,101633.66
2023-02-21T04:52:06.772Z,101635.75
2023-02-21T04:54:34.363Z,101635.44
2023-02-21T04:57:02.321Z,101633.78
2023-02-21T04:59:30.202Z,101634.81
2023-02-21T05:02:01.267Z,101634.81
2023-02-21T05:04:31.118Z,101632.13
2023-02-21T05:07:05.874Z,101634.72
2023-02-21T05:09:33.876Z,101631.44
2023-02-21T05:12:01.492Z,101628.34
2023-02-21T05:14:29.021Z,101623.81
2023-02-21T05:16:57.302Z,101628.84
2023-02-21T05:19:27.770Z,101624.91
2023-02-21T05:21:57.908Z,101626.06
2023-02-21T05:24:27.037Z,101629.34
2023-02-21T05:26:55.495Z,101620.53
2023-02-21T05:29:23.618Z,101628.09
2023-02-21T05:31:51.616Z,101616.69
2023-02-21T05:34:19.803Z,101620.06
2023-02-21T05:36:47.801Z,101620.91
2023-02-21T05:39:15.451Z,101616.00
2023-02-21T05:41:48.147Z,101619.63
2023-02-21T05:44:16.269Z,101617.81
2023-02-21T05:46:44.288Z,101617.09
2023-02-21T05:49:13.057Z,101616.19
2023-02-21T05:51:44.132Z,101612.19
2023-02-21T05:54:18.523Z,101619.41
2023-02-21T05:56:49.184Z,101616.75
2023-02-21T05:59:19.632Z,101614.06
2023-02-21T06:01:48.677Z,101616.88
2023-02-21T06:04:17.442Z,101618.31
2023-02-21T06:06:45.452Z,101624.31
2023-02-21T06:09:13.529Z,101624.50
2023-02-21T06:11:41.694Z,101623.19
2023-02-21T06:14:15.820Z,101627.50
2023-02-21T06:16:43.387Z,101624.00
2023-02-21T06:19:13.417Z,101625.78
2023-02-21T06:21:42.098Z,101624.03
2023-02-21T06:24:11.323Z,101629.97
2023-02-21T06:26:41.117Z,101629.97
2023-02-21T06:29:10.091Z,101633.34
2023-02-21T06:31:38.506Z,101639.31
2023-02-21T06:34:06.599Z,101631.66
2023-02-21T06:36:35.709Z,101637.78
2023-02-21T06:39:04.296Z,101642.00
2023-02-21T06:41:32.602Z,101637.50
2023-02-21T06:44:00.517Z,101638.41
2023-02-21T06:46:29.996Z,101639.47
2023-02-21T06:48:57.850Z,101631.16
2023-02-21T06:51:29.609Z,101645.53
2023-02-21T06:53:59.020Z,101641.13
2023-02-21T06:56:27.289Z,101648.31
2023-02-21T06:58:55.646Z,101654.19
2023-02-21T07:01:26.434Z,101654.84
2023-02-21T07:03:55.755Z,101649.72
2023-02-21T07:06:24.400Z,101657.38
2023-02-21T07:08:52.348Z,101657.28
2023-02-21T07:11:20.488Z,101654.19
2023-02-21T07:13:51.419Z,101664.56
2023-02-21T07:16:19.935Z,101672.72
2023-02-21T07:18:48.604Z,101667.78
2023-02-21T07:21:17.454Z,101671.22
2023-02-21T07:23:46.604Z,101676.47
2023-02-21T07:26:15.064Z,101675.75
2023-02-21T07:28:43.317Z,101681.00
2023-02-21T07:31:14.212Z,101685.84
2023-02-21T07:33:42.856Z,101684.38
2023-02-21T07:36:11.250Z,101689.72
2023-02-21T07:38:39.304Z,101686.66
2023-02-21T07:41:07.266Z,101692.16
2023-02-21T07:43:34.749Z,101694.13
2023-02-21T07:46:02.768Z,101690.84
2023-02-21T07:48:30.980Z,101686.66
2023-02-21T07:50:58.973Z,101682.78
2023-02-21T07:53:26.798Z,101687.28
2023-02-21T07:55:55.233Z,101697.41
2023-02-21T07:58:22.765Z,101691.19
2023-02-21T08:00:50.417Z,101686.34
2023-02-21T08:03:18.458Z,101690.94
2023-02-21T08:05:47.009Z,101687.91
2023-02-21T08:08:17.146Z,101697.22
2023-02-21T08:10:45.506Z,101695.00
2023-02-21T08:13:13.923Z,101690.38
2023-02-21T08:15:42.375Z,101698.66
2023-02-21T08:18:24.596Z,101684.69
2023-02-21T08:20:53.092Z,101691.34
2023-02-21T08:23:22.115Z,101688.16
2023-02-21T08:25:50.014Z,101680.34
2023-02-21T08:28:18.158Z,101675.78
2023-02-21T08:30:46.109Z,101680.97
2023-02-21T08:33:14.672Z,101690.75
2023-02-21T08:35:42.980Z,101682.94
2023-02-21T08:38:10.884Z,101681.19
2023-02-21T08:40:38.914Z,101686.19
2023-02-21T08:43:06.460Z,101693.69
2023-02-21T08:45:33.991Z,101686.69
2023-02-21T08:48:02.047Z,101692.91
2023-02-21T08:50:30.293Z,101696.66
2023-02-21T08:52:58.569Z,101691.84
2023-02-21T08:55:26.257Z,101699.84
2023-02-21T08:57:55.442Z,101702.75
2023-02-21T09:00:28.598Z,101694.88
2023-02-21T09:02:59.687Z,101693.53
2023-02-21T09:05:30.196Z,101692.56
2023-02-21T09:08:01.485Z,101699.91
2023-02-21T09:10:31.760Z,101691.22
2023-02-21T09:13:00.912Z,101699.50
2023-02-21T09:15:28.996Z,101700.56
2023-02-21T09:17:57.391Z,101697.72
2023-02-21T09:20:26.755Z,101699.41
2023-02-21T09:22:55.167Z,101694.06
2023-02-21T09:25:25.157Z,101683.88
2023-02-21T09:27:54.798Z,101684.78
2023-02-21T09:30:26.364Z,101684.38
2023-02-21T09:32:55.170Z,101684.38
2023-02-21T09:35:23.579Z,101679.66
2023-02-21T09:37:51.468Z,101689.41
2023-02-21T09:40:43.524Z,101684.91
2023-02-21T09:43:25.919Z,101686.72
2023-02-21T09:45:58.764Z,101683.78
2023-02-21T09:48:28.696Z,101685.13
2023-02-21T09:51:00.159Z,101682.25
2023-02-21T09:53:32.119Z,101686.34
2023-02-21T09:56:05.089Z,101672.97
2023-02-21T09:58:33.014Z,101676.59
2023-02-21T10:01:07.211Z,101671.06
2023-02-21T10:03:52.356Z,101679.94
2023-02-21T10:06:32.203Z,101677.13
2023-02-21T10:09:18.693Z,101670.31
2023-02-21T10:12:20.881Z,101677.03
2023-02-21T10:15:10.490Z,101674.06
2023-02-21T10:17:42.476Z,101675.75
2023-02-21T10:20:43.851Z,101681.31
2023-02-21T10:23:23.056Z,101666.97
2023-02-21T10:25:55.002Z,101668.44
2023-02-21T10:28:24.491Z,101667.25
2023-02-21T10:31:00.059Z,101663.13
2023-02-21T10:33:28.375Z,101663.47
2023-02-21T10:35:56.830Z,101660.25
2023-02-21T10:38:26.604Z,101660.53
2023-02-21T10:41:02.137Z,101666.50
2023-02-21T10:43:45.551Z,101665.50
2023-02-21T10:46:22.544Z,101660.03
2023-02-21T10:48:54.289Z,101657.13
2023-02-21T10:51:35.227Z,101654.00
2023-02-21T10:54:24.341Z,101651.47
2023-02-21T10:56:54.144Z,101648.31
2023-02-21T10:59:32.309Z,101648.09
2023-02-21T11:02:03.383Z,101648.78
2023-02-21T11:04:34.777Z,101657.38
2023-02-21T11:07:09.513Z,101646.59
2023-02-21T11:09:37.882Z,101633.22
2023-02-21T11:12:18.306Z,101622.53
2023-02-21T11:14:52.355Z,101618.22
2023-02-21T11:17:28.623Z,101616.63
2023-02-21T11:19:58.046Z,101618.72
2023-02-21T11:22:42.584Z,101610.00
2023-02-21T11:25:20.501Z,101608.41
2023-02-21T11:28:18.695Z,101610.53
2023-02-21T11:30:51.718Z,101603.31
2023-02-21T11:33:23.652Z,101598.31
2023-02-21T11:35:54.792Z,101592.81
2023-02-21T11:38:36.158Z,101599.41
2023-02-21T11:41:38.170Z,101589.31
2023-02-21T11:44:25.025Z,101592.16
2023-02-21T11:47:14.106Z,101589.47
2023-02-21T11:49:51.113Z,101578.13
2023-02-21T11:52:35.248Z,101575.47
2023-02-21T11:55:03.940Z,101572.59
2023-02-21T11:58:04.199Z,101562.41
2023-02-21T12:00:45.141Z,101566.56
2023-02-21T12:03:13.028Z,101552.44
2023-02-21T12:06:21.954Z,101552.09
2023-02-21T12:09:09.817Z,101545.44
2023-02-21T12:12:02.207Z,101547.75
2023-02-21T12:14:45.760Z,101542.72
2023-02-21T12:17:34.824Z,101539.72
2023-02-21T12:20:08.641Z,101540.41
2023-02-21T12:23:00.638Z,101533.00
2023-02-21T12:25:31.030Z,101529.56
2023-02-21T12:28:21.093Z,101525.31
2023-02-21T12:30:54.870Z,101521.97
2023-02-21T12:33:34.754Z,101517.19
2023-02-21T12:36:30.078Z,101509.56
2023-02-21T12:39:25.296Z,101509.31
2023-02-21T12:42:21.328Z,101507.97
2023-02-21T12:45:05.965Z,101496.81
2023-02-21T12:47:39.907Z,101502.88
2023-02-21T12:50:39.902Z,101498.44
2023-02-21T12:53:16.093Z,101497.91
2023-02-21T12:55:52.355Z,101493.16
2023-02-21T12:58:35.406Z,101491.78
2023-02-21T13:01:12.040Z,101490.56
2023-02-21T13:03:45.490Z,101488.75
2023-02-21T13:06:16.278Z,101481.59
2023-02-21T13:09:09.063Z,101470.81
2023-02-21T13:11:49.457Z,101467.88
2023-02-21T13:14:21.315Z,101479.16
2023-02-21T13:16:49.697Z,101467.56
2023-02-21T13:19:17.906Z,101462.44
2023-02-21T13:21:49.436Z,101460.69
2023-02-21T13:24:41.233Z,101452.03
2023-02-21T13:27:57.577Z,101450.84
2023-02-21T13:30:40.214Z,101440.97
2023-02-21T13:33:45.022Z,101433.38
2023-02-21T13:36:21.965Z,101439.25
2023-02-21T13:39:15.465Z,101432.47
2023-02-21T13:41:55.918Z,101425.59
2023-02-21T13:44:36.469Z,101423.72
2023-02-21T13:47:10.809Z,101410.84
2023-02-21T13:49:50.974Z,101409.38
2023-02-21T13:52:24.502Z,101400.78
2023-02-21T13:55:18.026Z,101407.25
2023-02-21T13:58:11.994Z,101402.53
2023-02-21T14:00:39.984Z,101392.84
2023-02-21T14:03:07.512Z,101394.72
2023-02-21T14:05:50.387Z,101393.97
2023-02-21T14:08:43.763Z,101395.50
2023-02-21T14:11:20.772Z,101385.16
2023-02-21T14:13:52.078Z,101379.13
2023-02-21T14:16:34.656Z,101384.41
2023-02-21T14:19:07.825Z,101368.44
2023-02-21T14:21:48.532Z,101369.00
2023-02-21T14:24:18.000Z,101358.31
2023-02-21T14:26:46.022Z,101378.28
2023-02-21T14:29:29.060Z,101375.03
2023-02-21T14:32:02.355Z,101372.25
2023-02-21T14:34:48.444Z,101382.72
2023-02-21T14:37:22.398Z,101375.28
2023-02-21T14:39:58.470Z,101381.22
2023-02-21T14:42:53.100Z,101376.28
2023-02-21T14:45:44.200Z,101380.19
2023-02-21T14:48:51.740Z,101375.75
2023-02-21T14:51:47.226Z,101382.53
2023-02-21T14:54:31.122Z,101377.19
2023-02-21T14:57:07.388Z,101382.75
2023-02-21T14:59:41.852Z,101384.78
2023-02-21T15:02:25.577Z,101377.84
2023-02-21T15:05:00.536Z,101374.63
2023-02-21T15:07:48.302Z,101381.78
2023-02-21T15:10:27.328Z,101378.69
2023-02-21T15:13:04.434Z,101379.19
2023-02-21T15:15:40.464Z,101375.47
2023-02-21T15:18:33.674Z,101368.50
2023-02-21T15:21:08.476Z,101373.44
2023-02-21T15:23:37.175Z,101369.84
2023-02-21T15:26:31.317Z,101370.56
2023-02-21T15:29:17.479Z,101365.25
2023-02-21T15:31:50.068Z,101367.91
2023-02-21T15:34:34.974Z,101364.41
2023-02-21T15:37:22.315Z,101372.66
2023-02-21T15:40:12.133Z,101368.84
2023-02-21T15:42:41.927Z,101365.75
2023-02-21T15:45:19.019Z,101374.25
2023-02-21T15:47:47.803Z,101372.66
2023-02-21T15:50:25.210Z,101372.34
2023-02-21T15:52:53.654Z,101386.44
2023-02-21T15:55:22.978Z,101382.03
2023-02-21T15:58:01.204Z,101387.28
2023-02-21T16:00:33.899Z,101379.38
2023-02-21T16:03:40.877Z,101375.81
2023-02-21T16:06:22.310Z,101382.13
2023-02-21T16:09:17.161Z,101385.50
2023-02-21T16:11:47.695Z,101385.81
2023-02-21T16:14:19.608Z,101385.91
2023-02-21T16:16:53.934Z,101387.59
2023-02-21T16:19:24.546Z,101392.06
2023-02-21T16:22:13.044Z,101391.38
2023-02-21T16:24:41.882Z,101381.16
2023-02-21T16:27:14.064Z,101382.97
2023-02-21T16:29:42.311Z,101386.75
2023-02-21T16:32:19.492Z,101390.38
2023-02-21T16:34:47.960Z,101393.06
2023-02-21T16:37:16.639Z,101391.72
2023-02-21T16:39:44.905Z,101391.09
2023-02-21T16:42:12.905Z,101389.81
2023-02-21T16:44:42.938Z,101394.78
2023-02-21T16:47:15.275Z,101403.06
2023-02-21T16:49:44.507Z,101398.22
2023-02-21T16:52:15.062Z,101409.88
2023-02-21T16:54:44.072Z,101400.53
2023-02-21T16:57:12.402Z,101400.22
2023-02-21T16:59:40.582Z,101406.56
2023-02-21T17:02:14.396Z,101408.66
2023-02-21T17:04:42.209Z,101403.63
2023-02-21T17:07:11.801Z,101408.03
2023-02-21T17:09:40.125Z,101403.91
2023-02-21T17:12:12.046Z,101410.22
2023-02-21T17:14:40.523Z,101409.78
2023-02-21T17:17:08.529Z,101404.00
2023-02-21T17:19:36.947Z,101398.97
2023-02-21T17:22:05.135Z,101405.59
2023-02-21T17:24:33.543Z,101405.44
2023-02-21T17:27:01.626Z,101410.53
2023-02-21T17:29:29.842Z,101406.41
2023-02-21T17:31:58.838Z,101409.97
2023-02-21T17:34:27.326Z,101399.94
2023-02-21T17:36:55.285Z,101406.31
2023-02-21T17:39:23.343Z,101408.84
2023-02-21T17:41:52.547Z,101402.03
2023-02-21T17:44:20.868Z,101417.16
2023-02-21T17:46:54.186Z,101418.31
2023-02-21T17:49:28.669Z,101412.31
2023-02-21T17:51:56.288Z,101415.97
2023-02-21T17:54:25.721Z,101415.66
2023-02-21T17:56:53.843Z,101415.75
2023-02-21T17:59:22.458Z,101420.50
2023-02-21T18:01:55.218Z,101416.84
2023-02-21T18:04:24.787Z,101416.22
2023-02-21T18:06:53.382Z,101418.44
2023-02-21T18:09:21.448Z,101427.00
2023-02-21T18:11:51.775Z,101420.69
2023-02-21T18:14:21.395Z,101426.09
2023-02-21T18:16:50.210Z,101424.94
2023-02-21T18:19:18.667Z,101421.84
2023-02-21T18:21:46.286Z,101423.41
2023-02-21T18:24:16.439Z,101421.25
2023-02-21T18:26:45.456Z,101416.84
2023-02-21T18:29:13.416Z,101418.91
2023-02-21T18:31:41.456Z,101415.91
2023-02-21T18:34:09.571Z,101411.09
2023-02-21T18:36:40.917Z,101416.09
2023-02-21T18:39:08.898Z,101421.00
2023-02-21T18:41:36.409Z,101417.88
2023-02-21T18:44:04.571Z,101417.97
2023-02-21T18:46:33.019Z,101421.63
2023-02-21T18:49:00.488Z,101412.19
2023-02-21T18:51:28.017Z,101416.28
2023-02-21T18:53:56.004Z,101419.34
2023-02-21T18:56:24.532Z,101413.81
2023-02-21T18:58:53.480Z,101411.06
2023-02-21T19:01:24.962Z,101408.84
2023-02-21T19:03:54.143Z,101408.63
2023-02-21T19:06:23.225Z,101409.47
2023-02-21T19:08:51.482Z,101413.38
2023-02-21T19:11:19.453Z,101418.53
2023-02-21T19:13:49.959Z,101414.03
2023-02-21T19:16:20.261Z,101414.81
2023-02-21T19:18:50.441Z,101425.94
2023-02-21T19:21:19.145Z,101421.50
2023-02-21T19:23:47.177Z,101422.25
2023-02-21T19:26:15.041Z,101422.50
2023-02-21T19:28:43.085Z,101426.13
2023-02-21T19:31:14.373Z,101425.66
2023-02-21T19:33:44.305Z,101430.53
2023-02-21T19:36:12.520Z,101436.78
2023-02-21T19:38:41.451Z,101440.66
2023-02-21T19:41:09.734Z,101441.50
2023-02-21T19:43:37.563Z,101425.09
2023-02-21T19:46:05.405Z,101436.63
2023-02-21T19:48:33.019Z,101434.94
2023-02-21T19:51:01.168Z,101437.09
2023-02-21T19:53:29.365Z,101435.69
2023-02-21T19:55:57.338Z,101441.91
2023-02-21T19:58:24.979Z,101443.38
2023-02-21T20:00:53.351Z,101438.13
2023-02-21T20:03:21.408Z,101442.06
2023-02-21T20:05:49.426Z,101440.88
2023-02-21T20:08:18.404Z,101447.63
2023-02-21T20:10:46.397Z,101449.97
2023-02-21T20:13:15.123Z,101448.09
2023-02-21T20:15:44.992Z,101453.44
2023-02-21T20:18:14.665Z,101444.16
2023-02-21T20:20:43.167Z,101443.88
2023-02-21T20:23:12.171Z,101449.34
2023-02-21T20:25:40.255Z,101448.56
2023-02-21T20:28:09.879Z,101456.72
2023-02-21T20:30:37.940Z,101459.34
2023-02-21T20:33:06.987Z,101454.38
2023-02-21T20:35:34.850Z,101455.44
2023-02-21T20:38:05.438Z,101455.72
2023-02-21T20:40:35.276Z,101454.47
2023-02-21T20:43:02.796Z,101457.38
2023-02-21T20:45:30.741Z,101458.59
2023-02-21T20:47:58.346Z,101461.88
2023-02-21T20:50:26.548Z,101455.25
2023-02-21T20:52:54.718Z,101459.75
2023-02-21T20:55:23.383Z,101465.00
2023-02-21T20:57:51.415Z,101466.78
2023-02-21T21:00:23.556Z,101462.00
2023-02-21T21:02:53.018Z,101465.94
2023-02-21T21:05:21.251Z,101467.53
2023-02-21T21:07:49.392Z,101474.00
2023-02-21T21:10:19.169Z,101468.69
2023-02-21T21:12:49.558Z,101472.34
2023-02-21T21:15:20.133Z,101468.59
2023-02-21T21:17:48.411Z,101464.81
2023-02-21T21:20:19.617Z,101463.91
2023-02-21T21:22:48.725Z,101468.59
2023-02-21T21:25:17.581Z,101465.00
2023-02-21T21:27:45.674Z,101467.81
2023-02-21T21:30:18.420Z,101463.91
2023-02-21T21:32:46.624Z,101463.78
2023-02-21T21:35:17.177Z,101465.47
2023-02-21T21:37:45.177Z,101457.13
2023-02-21T21:40:15.680Z,101464.03
2023-02-21T21:42:54.539Z,101461.88
2023-02-21T21:45:26.784Z,101455.13
2023-02-21T21:47:58.761Z,101467.22
2023-02-21T21:50:27.375Z,101460.81
2023-02-21T21:52:58.519Z,101459.72
2023-02-21T21:55:30.098Z,101455.88
2023-02-21T21:57:59.097Z,101457.38
2023-02-21T22:00:29.426Z,101455.13
2023-02-21T22:02:59.223Z,101459.28
2023-02-21T22:05:30.523Z,101455.59
2023-02-21T22:07:58.695Z,101455.22
2023-02-21T22:10:28.226Z,101465.75
2023-02-21T22:12:59.860Z,101462.09
2023-02-21T22:15:30.208Z,101454.88
2023-02-21T22:18:02.044Z,101456.19
2023-02-21T22:20:31.273Z,101453.56
2023-02-21T22:22:59.539Z,101457.69
2023-02-21T22:25:30.276Z,101453.34
2023-02-21T22:28:02.602Z,101461.81
2023-02-21T22:30:30.255Z,101458.34
2023-02-21T22:32:57.895Z,101453.53
2023-02-21T22:35:28.550Z,101452.59
2023-02-21T22:38:07.797Z,101451.84
2023-02-21T22:40:35.801Z,101448.06
2023-02-21T22:43:05.932Z,101450.59
2023-02-21T22:45:35.772Z,101441.72
2023-02-21T22:48:06.471Z,101452.56
2023-02-21T22:50:37.176Z,101446.47
2023-02-21T22:53:09.215Z,101442.81
2023-02-21T22:55:37.373Z,101443.34
2023-02-21T22:58:08.308Z,101443.31
2023-02-21T23:00:36.871Z,101446.59
2023-02-21T23:03:13.410Z,101444.75
2023-02-21T23:05:49.683Z,101443.09
2023-02-21T23:08:20.913Z,101441.88
2023-02-21T23:10:50.195Z,101440.34
2023-02-21T23:13:21.089Z,101436.28
2023-02-21T23:15:49.403Z,101438.31
2023-02-21T23:18:23.297Z,101443.66
2023-02-21T23:20:53.566Z,101429.88
2023-02-21T23:23:27.214Z,101428.63
2023-02-21T23:25:59.376Z,101435.94
2023-02-21T23:28:30.581Z,101422.56
2023-02-21T23:30:58.550Z,101426.09
2023-02-21T23:33:33.893Z,101424.72
2023-02-21T23:36:04.714Z,101414.88
2023-02-21T23:38:38.556Z,101420.31
2023-02-21T23:41:10.462Z,101417.09
2023-02-21T23:43:38.401Z,101419.84
2023-02-21T23:46:07.622Z,101416.91
2023-02-21T23:48:35.197Z,101415.03
2023-02-21T23:51:03.176Z,101414.13
2023-02-21T23:53:31.865Z,101412.81
2023-02-21T23:56:00.938Z,101404.16
2023-02-21T23:58:34.147Z,101406.56
